Time;durP1;ratioP1;P1;durP2;ratioP2;P2;SDS_P1;SDS_P2;PMS_P1;PMS_P2;Temp;Humidity;BMP_temperature;BMP_pressure;BME280_temperature;BME280_humidity;BME280_pressure;Samples;Min_cycle;Max_cycle;Signal;HPM_P1;HPM_P2
2022/07/10 00:01:48;;;;;;;3.78;1.77;;;18.60;66.90;;;;;;5010504;28;20052;-82
2022/07/10 00:04:14;;;;;;;2.42;2.22;;;18.60;66.90;;;;;;5010323;28;20402;-81
2022/07/10 00:06:46;;;;;;;3.53;1.98;;;18.60;67.00;;;;;;5011323;28;20026;-81
2022/07/10 00:09:13;;;;;;;4.43;1.90;;;18.60;66.80;;;;;;5010433;28;20433;-80
2022/07/10 00:11:39;;;;;;;8.27;2.42;;;18.60;66.90;;;;;;5011401;28;20086;-79
2022/07/10 00:14:05;;;;;;;4.13;2.33;;;18.60;66.90;;;;;;5012555;28;20026;-81
2022/07/10 00:16:30;;;;;;;2.33;2.13;;;18.60;66.90;;;;;;5010040;28;20065;-80
2022/07/10 00:18:56;;;;;;;5.75;2.45;;;18.60;67.00;;;;;;5010216;28;20083;-81
2022/07/10 00:21:23;;;;;;;3.75;2.33;;;18.50;66.90;;;;;;5010139;28;20033;-82
2022/07/10 00:23:48;;;;;;;4.57;2.40;;;18.50;67.10;;;;;;5010126;28;20071;-81
2022/07/10 00:26:14;;;;;;;4.22;2.58;;;18.40;67.30;;;;;;5009107;28;20030;-80
2022/07/10 00:28:39;;;;;;;4.65;2.03;;;18.40;67.60;;;;;;5010159;28;20033;-81
2022/07/10 00:31:05;;;;;;;2.85;2.15;;;18.30;67.80;;;;;;5009708;28;20077;-81
2022/07/10 00:33:32;;;;;;;3.38;2.38;;;18.30;67.80;;;;;;5010063;28;20018;-81
2022/07/10 00:35:58;;;;;;;5.10;2.33;;;18.30;67.90;;;;;;5009592;28;20034;-82
2022/07/10 00:38:24;;;;;;;3.58;2.42;;;18.10;68.80;;;;;;5009912;28;20470;-81
2022/07/10 00:40:49;;;;;;;4.95;2.63;;;18.10;68.80;;;;;;5010053;28;20030;-81
2022/07/10 00:43:15;;;;;;;5.00;2.92;;;18.10;68.80;;;;;;5009798;28;20032;-82
2022/07/10 00:45:41;;;;;;;4.30;2.20;;;18.10;68.70;;;;;;5009596;28;20025;-80
2022/07/10 00:48:09;;;;;;;2.90;2.30;;;18.10;68.50;;;;;;5009515;28;20493;-81
2022/07/10 00:50:34;;;;;;;3.65;2.60;;;18.20;68.30;;;;;;5009792;28;20053;-79
2022/07/10 00:53:02;;;;;;;3.28;2.65;;;18.20;68.20;;;;;;5009697;28;20060;-81
2022/07/10 00:55:28;;;;;;;6.18;3.20;;;18.10;68.30;;;;;;5009446;28;20049;-80
2022/07/10 00:57:54;;;;;;;4.70;2.75;;;18.10;68.20;;;;;;5009165;28;20030;-80
2022/07/10 01:00:21;;;;;;;3.72;2.70;;;18.10;68.50;;;;;;5009271;28;20464;-80
2022/07/10 01:02:47;;;;;;;6.90;2.50;;;18.10;68.70;;;;;;4993210;28;20041;-78
2022/07/10 01:05:13;;;;;;;4.82;2.47;;;18.10;68.50;;;;;;5009613;28;20470;-80
2022/07/10 01:07:39;;;;;;;2.80;2.42;;;18.10;68.60;;;;;;5009168;28;20090;-80
2022/07/10 01:10:05;;;;;;;4.55;2.88;;;18.10;69.50;;;;;;5009295;28;20037;-81
2022/07/10 01:12:31;;;;;;;2.47;2.25;;;18.00;69.00;;;;;;5009430;28;20069;-80
2022/07/10 01:14:58;;;;;;;5.95;2.70;;;18.10;69.10;;;;;;5008988;28;20036;-80
2022/07/10 01:17:24;;;;;;;4.45;2.83;;;18.00;70.20;;;;;;5008942;28;20498;-79
2022/07/10 01:19:50;;;;;;;6.40;2.78;;;17.90;69.60;;;;;;5009249;28;20021;-77
2022/07/10 01:22:15;;;;;;;3.47;2.42;;;17.70;70.00;;;;;;5009274;28;20458;-76
2022/07/10 01:24:41;;;;;;;4.00;2.50;;;17.60;70.30;;;;;;5008950;28;20379;-76
2022/07/10 01:27:07;;;;;;;5.03;2.50;;;17.50;70.40;;;;;;5008913;28;20026;-79
2022/07/10 01:29:35;;;;;;;2.55;2.13;;;17.40;70.40;;;;;;5008920;28;20550;-78
2022/07/10 01:32:01;;;;;;;3.90;2.60;;;17.40;70.60;;;;;;5008676;28;20037;-79
2022/07/10 01:34:27;;;;;;;3.25;2.28;;;17.30;70.80;;;;;;5009033;28;20443;-79
2022/07/10 01:36:53;;;;;;;3.25;2.22;;;17.40;71.70;;;;;;5008099;28;20065;-78
2022/07/10 01:39:18;;;;;;;2.15;1.95;;;17.30;70.80;;;;;;5015376;28;20060;-81
2022/07/10 01:41:44;;;;;;;6.60;2.45;;;17.30;70.80;;;;;;5015345;28;20064;-78
2022/07/10 01:44:09;;;;;;;4.40;2.70;;;17.20;70.80;;;;;;5015251;28;20471;-77
2022/07/10 01:46:35;;;;;;;8.18;2.50;;;17.10;71.40;;;;;;5015029;28;20550;-78
2022/07/10 01:49:01;;;;;;;3.90;2.30;;;17.00;71.70;;;;;;5015311;28;20021;-78
2022/07/10 01:51:26;;;;;;;3.13;2.40;;;17.00;71.90;;;;;;5015424;28;20112;-76
2022/07/10 01:53:52;;;;;;;3.53;2.20;;;16.90;72.20;;;;;;5015226;28;20114;-75
2022/07/10 01:56:17;;;;;;;5.40;2.65;;;17.00;72.10;;;;;;5015246;28;20030;-78
2022/07/10 01:58:43;;;;;;;2.42;2.10;;;17.00;72.00;;;;;;5015164;28;20055;-80
2022/07/10 02:01:09;;;;;;;5.53;2.30;;;17.00;71.80;;;;;;5014973;28;20037;-80
2022/07/10 02:06:19;;;;;;;4.22;2.80;;;16.90;71.90;;;;;;5016563;28;20049;-76
2022/07/10 02:08:45;;;;;;;7.35;2.47;;;16.90;72.20;;;;;;5014959;28;20026;-80
2022/07/10 02:11:12;;;;;;;5.43;2.28;;;16.80;72.50;;;;;;5014994;28;20505;-79
2022/07/10 02:13:38;;;;;;;3.55;2.40;;;16.70;72.60;;;;;;5014898;28;20390;-75
2022/07/10 02:16:04;;;;;;;4.38;2.33;;;16.70;72.90;;;;;;5015055;28;20076;-77
2022/07/10 02:18:30;;;;;;;4.75;2.70;;;16.70;73.00;;;;;;5015061;28;20457;-79
2022/07/10 02:20:55;;;;;;;3.00;2.42;;;16.60;73.00;;;;;;5014924;28;20478;-77
2022/07/10 02:23:21;;;;;;;5.13;2.58;;;16.70;73.00;;;;;;5014772;28;20033;-75
2022/07/10 02:25:47;;;;;;;4.13;2.45;;;16.60;72.70;;;;;;5014650;28;20482;-78
2022/07/10 02:28:12;;;;;;;2.22;2.03;;;16.60;72.70;;;;;;5014741;28;20407;-80
2022/07/10 02:30:38;;;;;;;2.85;2.10;;;16.60;72.70;;;;;;5014756;28;20053;-80
2022/07/10 02:33:03;;;;;;;2.45;2.25;;;16.60;72.60;;;;;;5014768;28;20030;-77
2022/07/10 02:35:29;;;;;;;5.95;2.67;;;16.60;72.60;;;;;;5014589;28;20401;-80
2022/07/10 02:37:54;;;;;;;3.65;2.47;;;16.50;72.80;;;;;;5014634;28;20034;-79
2022/07/10 02:40:20;;;;;;;5.15;2.50;;;16.50;72.90;;;;;;5014599;28;20064;-78
2022/07/10 02:42:46;;;;;;;4.30;2.50;;;16.50;72.90;;;;;;5014905;28;20050;-80
2022/07/10 02:45:12;;;;;;;5.63;2.08;;;16.50;72.80;;;;;;5014619;28;20029;-79
2022/07/10 02:47:37;;;;;;;5.47;2.53;;;16.50;72.90;;;;;;5014667;28;20029;-79
2022/07/10 02:50:03;;;;;;;4.90;2.53;;;16.40;72.80;;;;;;5011487;28;20026;-80
2022/07/10 02:52:30;;;;;;;3.22;2.50;;;16.40;73.00;;;;;;5011310;28;20535;-74
2022/07/10 02:54:56;;;;;;;3.10;2.10;;;16.30;73.40;;;;;;5011207;28;20041;-74
2022/07/10 02:57:22;;;;;;;3.70;3.08;;;16.30;73.50;;;;;;5010932;28;20121;-74
2022/07/10 02:59:48;;;;;;;3.83;2.28;;;16.20;73.40;;;;;;5011252;28;20113;-74
2022/07/10 03:02:15;;;;;;;4.07;2.65;;;16.20;73.50;;;;;;5011324;28;20504;-76
2022/07/10 03:04:40;;;;;;;3.38;2.72;;;16.20;73.60;;;;;;5011118;28;20466;-73
2022/07/10 03:07:06;;;;;;;3.15;2.50;;;16.20;73.80;;;;;;4994660;28;20041;-76
2022/07/10 03:09:31;;;;;;;2.85;2.55;;;16.20;73.70;;;;;;5010893;28;20022;-74
2022/07/10 03:11:57;;;;;;;3.70;2.85;;;16.10;74.00;;;;;;5010839;28;20033;-74
2022/07/10 03:14:23;;;;;;;4.05;3.03;;;16.10;74.50;;;;;;5011071;28;20026;-73
2022/07/10 03:16:48;;;;;;;5.57;3.75;;;16.00;74.60;;;;;;5010573;28;20041;-73
2022/07/10 03:19:14;;;;;;;6.72;3.78;;;16.00;74.50;;;;;;5010612;28;20106;-74
2022/07/10 03:21:40;;;;;;;4.38;3.67;;;15.90;74.80;;;;;;5010850;28;20029;-74
2022/07/10 03:24:05;;;;;;;4.25;3.30;;;15.80;74.90;;;;;;5010455;28;20431;-74
2022/07/10 03:26:31;;;;;;;5.53;3.80;;;15.80;74.80;;;;;;5011042;28;20033;-73
2022/07/10 03:28:57;;;;;;;6.05;3.67;;;15.80;74.70;;;;;;5010692;28;20118;-73
2022/07/10 03:31:22;;;;;;;4.25;3.03;;;15.80;74.80;;;;;;5010209;28;20126;-72
2022/07/10 03:33:48;;;;;;;5.80;3.58;;;15.80;74.80;;;;;;5010680;28;20075;-76
2022/07/10 03:36:14;;;;;;;4.20;3.38;;;15.80;74.70;;;;;;5010798;28;20034;-77
2022/07/10 03:38:40;;;;;;;6.95;3.67;;;15.90;74.60;;;;;;5010725;28;20508;-73
2022/07/10 03:41:06;;;;;;;4.10;3.17;;;15.70;74.70;;;;;;5010428;28;20107;-73
2022/07/10 03:43:31;;;;;;;5.75;4.50;;;15.60;75.60;;;;;;5011433;28;20371;-82
2022/07/10 03:45:58;;;;;;;6.95;4.25;;;15.60;75.10;;;;;;5010784;28;20034;-81
2022/07/10 03:48:24;;;;;;;4.13;3.67;;;15.60;75.40;;;;;;5010477;28;20026;-80
2022/07/10 03:50:50;;;;;;;6.05;4.15;;;15.60;75.40;;;;;;5016373;28;20033;-81
2022/07/10 03:53:16;;;;;;;5.22;3.97;;;15.60;75.30;;;;;;5010685;28;20026;-82
2022/07/10 03:55:42;;;;;;;4.90;3.83;;;15.70;75.20;;;;;;5011255;28;20037;-81
2022/07/10 03:58:08;;;;;;;6.20;3.83;;;15.70;75.10;;;;;;5011046;28;20018;-81
2022/07/10 04:00:37;;;;;;;4.93;3.53;;;15.80;74.80;;;;;;5009694;28;20076;-82
2022/07/10 04:03:04;;;;;;;6.18;3.70;;;15.80;74.60;;;;;;5010212;28;20472;-81
2022/07/10 04:05:31;;;;;;;5.63;3.72;;;15.90;74.60;;;;;;5010195;28;20057;-81
2022/07/10 04:07:58;;;;;;;4.25;3.03;;;15.80;74.50;;;;;;5010164;28;20029;-81
2022/07/10 04:10:25;;;;;;;4.93;3.13;;;15.80;74.80;;;;;;5009947;28;20121;-81
2022/07/10 04:12:51;;;;;;;5.38;3.80;;;15.80;74.50;;;;;;5010133;28;20105;-75
2022/07/10 04:15:19;;;;;;;4.93;3.67;;;15.90;74.50;;;;;;5009969;28;20074;-73
2022/07/10 04:17:45;;;;;;;5.43;3.20;;;15.80;74.80;;;;;;5010050;28;20033;-73
2022/07/10 04:20:11;;;;;;;3.47;3.10;;;15.80;75.00;;;;;;5010231;28;20466;-73
2022/07/10 04:22:36;;;;;;;3.42;2.97;;;15.80;75.00;;;;;;5010042;28;20477;-72
2022/07/10 04:25:03;;;;;;;3.90;2.85;;;15.90;75.10;;;;;;5009643;28;20037;-74
2022/07/10 04:27:29;;;;;;;3.67;2.97;;;16.00;75.00;;;;;;5009509;28;20059;-73
2022/07/10 04:29:54;;;;;;;3.92;3.08;;;16.00;74.80;;;;;;5009671;28;20129;-73
2022/07/10 04:32:20;;;;;;;7.13;3.95;;;16.10;74.80;;;;;;5009600;28;20434;-74
2022/07/10 04:34:46;;;;;;;4.13;3.40;;;16.10;74.80;;;;;;5009459;28;20147;-72
2022/07/10 04:37:11;;;;;;;5.70;3.80;;;16.10;74.90;;;;;;5009415;28;20087;-73
2022/07/10 04:39:37;;;;;;;3.97;3.08;;;16.10;74.70;;;;;;5009413;28;20018;-73
2022/07/10 04:42:07;;;;;;;5.03;4.22;;;16.20;74.50;;;;;;5009568;28;20482;-73
2022/07/10 04:44:33;;;;;;;6.20;3.97;;;16.20;74.50;;;;;;5009506;28;20026;-73
2022/07/10 04:46:58;;;;;;;5.60;4.30;;;16.20;74.90;;;;;;5009532;28;20378;-73
2022/07/10 04:49:24;;;;;;;6.55;4.78;;;16.10;75.40;;;;;;5009587;28;20034;-73
2022/07/10 04:51:50;;;;;;;8.77;6.28;;;16.20;75.90;;;;;;5009676;28;20026;-73
2022/07/10 04:54:16;;;;;;;9.02;6.82;;;16.10;76.80;;;;;;5009144;28;20385;-72
2022/07/10 04:56:41;;;;;;;7.07;6.32;;;16.10;77.40;;;;;;5009443;28;20045;-72
2022/07/10 04:59:09;;;;;;;9.77;7.88;;;16.20;77.30;;;;;;5009534;28;20018;-72
2022/07/10 05:01:34;;;;;;;8.57;6.68;;;16.20;77.50;;;;;;5009150;28;20661;-72
2022/07/10 05:04:00;;;;;;;9.80;6.97;;;16.20;77.60;;;;;;5009206;28;20022;-72
2022/07/10 05:06:26;;;;;;;10.05;8.20;;;16.20;77.50;;;;;;5009170;28;20026;-73
2022/07/10 05:08:54;;;;;;;7.95;6.97;;;16.30;77.60;;;;;;5009437;28;20076;-73
2022/07/10 05:11:20;;;;;;;9.57;7.15;;;16.30;77.60;;;;;;5009295;28;20067;-72
2022/07/10 05:13:48;;;;;;;10.18;7.82;;;16.20;78.00;;;;;;5008308;28;20483;-72
2022/07/10 05:16:14;;;;;;;11.02;7.88;;;16.20;78.10;;;;;;5008929;28;20262;-73
2022/07/10 05:18:40;;;;;;;10.38;8.55;;;16.30;78.30;;;;;;5008966;28;20022;-72
2022/07/10 05:21:06;;;;;;;11.23;8.45;;;16.30;78.40;;;;;;5008997;28;20036;-72
2022/07/10 05:23:32;;;;;;;15.00;10.35;;;16.20;78.70;;;;;;5009192;28;20019;-72
2022/07/10 05:25:57;;;;;;;13.45;10.80;;;16.00;79.60;;;;;;5009160;28;20071;-72
2022/07/10 05:28:23;;;;;;;16.80;10.98;;;15.90;80.50;;;;;;5010453;28;20037;-72
2022/07/10 05:30:49;;;;;;;11.45;10.05;;;15.90;81.10;;;;;;5008832;28;20103;-73
2022/07/10 05:33:15;;;;;;;12.05;9.30;;;15.90;81.00;;;;;;5008848;28;20025;-73
2022/07/10 05:35:41;;;;;;;14.50;11.23;;;15.90;81.10;;;;;;5010052;28;20087;-72
2022/07/10 05:38:07;;;;;;;15.13;11.60;;;16.10;80.60;;;;;;4992731;28;20026;-72
2022/07/10 05:40:33;;;;;;;13.55;11.25;;;16.10;80.40;;;;;;5008857;28;20478;-72
2022/07/10 05:42:58;;;;;;;14.00;11.05;;;16.10;80.20;;;;;;5008494;28;20034;-72
2022/07/10 05:45:24;;;;;;;13.20;11.40;;;16.20;80.10;;;;;;5008659;28;20041;-73
2022/07/10 05:47:51;;;;;;;13.15;11.02;;;16.10;80.10;;;;;;5008968;28;20023;-73
2022/07/10 05:50:17;;;;;;;15.65;11.45;;;16.20;80.10;;;;;;5008510;28;20458;-73
2022/07/10 05:52:43;;;;;;;14.35;9.90;;;16.30;79.50;;;;;;4992451;28;20037;-72
2022/07/10 05:55:08;;;;;;;11.75;8.73;;;16.40;79.40;;;;;;5008622;28;20030;-73
2022/07/10 05:57:34;;;;;;;9.63;7.53;;;16.50;78.90;;;;;;5008700;28;20038;-73
2022/07/10 06:00:05;;;;;;;9.77;7.32;;;16.70;78.20;;;;;;5008634;28;20058;-73
2022/07/10 06:02:31;;;;;;;11.77;9.10;;;16.90;77.50;;;;;;5008453;28;20086;-72
2022/07/10 06:04:57;;;;;;;11.57;9.25;;;16.80;76.60;;;;;;5007944;28;20468;-73
2022/07/10 06:07:23;;;;;;;14.00;8.57;;;16.90;76.70;;;;;;5008570;28;20057;-73
2022/07/10 06:09:48;;;;;;;12.23;7.95;;;16.90;76.10;;;;;;5008391;28;20022;-73
2022/07/10 06:12:15;;;;;;;9.32;6.72;;;17.10;75.40;;;;;;5008663;28;20048;-73
2022/07/10 06:14:41;;;;;;;9.90;6.10;;;17.30;74.70;;;;;;5008601;28;20022;-73
2022/07/10 06:17:07;;;;;;;11.20;4.93;;;17.70;73.50;;;;;;4992072;28;20046;-72
2022/07/10 06:19:32;;;;;;;9.02;6.03;;;17.90;72.50;;;;;;5008548;28;20379;-73
2022/07/10 06:24:42;;;;;;;6.97;5.95;;;18.10;71.20;;;;;;5010884;28;20071;-73
2022/07/10 06:27:08;;;;;;;10.50;5.25;;;17.80;71.20;;;;;;5011116;28;20021;-73
2022/07/10 06:29:33;;;;;;;9.77;5.55;;;17.50;71.20;;;;;;5012020;28;20034;-73
2022/07/10 06:31:59;;;;;;;9.43;5.75;;;17.30;72.20;;;;;;5011190;28;20050;-73
2022/07/10 06:34:24;;;;;;;7.00;6.20;;;17.10;72.90;;;;;;5011727;28;20079;-73
2022/07/10 06:36:50;;;;;;;9.23;5.75;;;17.10;73.20;;;;;;5011360;28;20065;-73
2022/07/10 06:39:15;;;;;;;10.20;5.78;;;17.00;73.60;;;;;;4995071;28;20041;-73
2022/07/10 06:41:41;;;;;;;9.70;5.78;;;17.10;73.70;;;;;;5011495;28;20390;-73
2022/07/10 06:44:06;;;;;;;11.18;6.18;;;17.00;73.80;;;;;;5011282;28;20390;-72
2022/07/10 06:46:32;;;;;;;9.35;5.43;;;16.90;74.30;;;;;;5011524;28;20018;-73
2022/07/10 06:48:59;;;;;;;8.70;5.72;;;16.90;74.30;;;;;;5011473;28;20463;-73
2022/07/10 06:51:25;;;;;;;6.88;5.97;;;16.80;73.80;;;;;;5011549;28;20022;-73
2022/07/10 06:53:51;;;;;;;8.32;5.43;;;16.90;73.30;;;;;;5011238;28;20026;-73
2022/07/10 06:56:17;;;;;;;6.45;4.28;;;16.80;73.70;;;;;;5011113;28;20578;-73
2022/07/10 06:58:42;;;;;;;7.60;5.32;;;16.90;73.70;;;;;;5011032;28;20034;-73
2022/07/10 07:01:08;;;;;;;11.55;5.65;;;17.00;73.40;;;;;;5011025;28;20026;-73
2022/07/10 07:03:33;;;;;;;5.80;4.75;;;16.90;73.50;;;;;;5011225;28;20117;-73
2022/07/10 07:05:59;;;;;;;11.88;5.10;;;16.90;74.00;;;;;;4996828;28;20034;-74
2022/07/10 07:08:25;;;;;;;12.02;5.50;;;17.00;73.90;;;;;;5012531;28;20067;-74
2022/07/10 07:10:50;;;;;;;10.25;5.18;;;16.80;74.00;;;;;;5011366;28;20489;-74
2022/07/10 07:13:17;;;;;;;14.57;5.65;;;16.80;74.50;;;;;;5010988;28;20359;-73
2022/07/10 07:15:48;;;;;;;8.38;4.55;;;16.60;74.80;;;;;;5010687;28;20389;-73
2022/07/10 07:18:16;;;;;;;8.10;4.88;;;16.60;74.90;;;;;;5011056;28;20478;-73
2022/07/10 07:23:26;;;;;;;9.25;4.25;;;16.90;74.10;;;;;;5012236;28;20091;-73
2022/07/10 07:25:52;;;;;;;10.32;4.07;;;17.00;73.30;;;;;;5011150;28;20022;-72
2022/07/10 07:28:20;;;;;;;6.72;3.90;;;17.20;71.70;;;;;;4995719;28;20030;-74
2022/07/10 07:30:46;;;;;;;6.45;3.70;;;17.20;71.60;;;;;;5010516;28;20054;-73
2022/07/10 07:33:12;;;;;;;8.50;3.33;;;17.20;71.20;;;;;;5010921;28;20486;-73
2022/07/10 07:35:39;;;;;;;8.65;4.20;;;17.20;71.00;;;;;;5008886;28;20096;-73
2022/07/10 07:38:05;;;;;;;5.00;3.05;;;17.30;71.70;;;;;;5010266;28;20041;-73
2022/07/10 07:40:32;;;;;;;6.40;3.22;;;17.50;71.00;;;;;;5010545;28;20035;-73
2022/07/10 07:42:58;;;;;;;5.78;3.47;;;17.60;69.60;;;;;;5010454;28;20022;-73
2022/07/10 07:45:25;;;;;;;4.78;3.03;;;17.70;69.00;;;;;;5010678;28;20555;-72
2022/07/10 07:47:56;;;;;;;5.20;3.13;;;17.60;69.70;;;;;;5012122;28;20033;-73
2022/07/10 07:50:31;;;;;;;4.57;2.67;;;17.80;69.30;;;;;;5013355;28;20139;-72
2022/07/10 07:52:57;;;;;;;;;;;18.10;68.60;;;;;;5011205;28;20061;-72
2022/07/10 07:55:23;;;;;;;;;;;18.70;67.00;;;;;;5010649;28;19960;-74
2022/07/10 07:57:53;;;;;;;6.65;3.22;;;19.20;63.60;;;;;;5010558;28;19955;-73
2022/07/10 08:00:23;;;;;;;11.75;3.03;;;19.40;61.80;;;;;;5010516;28;20022;-73
2022/07/10 08:02:51;;;;;;;5.60;2.50;;;19.50;62.20;;;;;;5010233;28;20031;-73
2022/07/10 08:05:18;;;;;;;4.75;1.80;;;19.80;61.50;;;;;;5010512;28;20113;-73
2022/07/10 08:07:58;;;;;;;3.97;2.00;;;20.10;60.10;;;;;;5010348;28;20381;-73
2022/07/10 08:10:26;;;;;;;10.00;2.30;;;20.50;59.10;;;;;;5010310;28;20532;-74
2022/07/10 08:12:52;;;;;;;6.82;2.10;;;20.90;57.30;;;;;;5010082;28;20116;-73
2022/07/10 08:15:22;;;;;;;4.30;1.90;;;21.30;56.10;;;;;;5009899;28;20137;-73
2022/07/10 08:17:48;;;;;;;5.35;2.03;;;21.50;54.70;;;;;;5010260;28;20041;-75
2022/07/10 08:20:14;;;;;;;5.65;1.90;;;21.90;52.70;;;;;;5009961;28;20026;-74
2022/07/10 08:22:40;;;;;;;6.80;2.13;;;21.80;51.60;;;;;;5009786;28;20121;-73
2022/07/10 08:25:06;;;;;;;5.78;2.22;;;21.30;52.40;;;;;;5009602;28;20029;-72
2022/07/10 08:27:32;;;;;;;3.38;1.40;;;21.20;53.40;;;;;;5009928;28;20029;-74
2022/07/10 08:29:58;;;;;;;4.47;2.08;;;21.50;52.20;;;;;;5009394;28;20503;-74
2022/07/10 08:32:23;;;;;;;3.83;1.90;;;21.70;49.90;;;;;;5009877;28;20482;-73
2022/07/10 08:34:49;;;;;;;5.63;1.88;;;21.40;50.80;;;;;;5009678;28;20454;-73
2022/07/10 08:37:15;;;;;;;3.15;1.80;;;21.40;51.10;;;;;;5009581;28;20067;-76
2022/07/10 08:39:41;;;;;;;4.30;1.73;;;21.60;50.90;;;;;;5009958;28;20056;-75
2022/07/10 08:42:08;;;;;;;5.40;1.50;;;21.90;49.90;;;;;;5010821;28;20068;-80
2022/07/10 08:44:34;;;;;;;6.15;2.28;;;22.00;49.40;;;;;;5010173;28;20037;-77
2022/07/10 08:47:02;;;;;;;7.72;1.83;;;21.80;49.40;;;;;;5007704;28;20026;-77
2022/07/10 08:49:30;;;;;;;14.90;2.45;;;21.50;50.50;;;;;;5009158;28;20102;-76
2022/07/10 08:52:06;;;;;;;7.97;2.08;;;21.40;49.90;;;;;;5009277;28;20026;-75
2022/07/10 08:54:35;;;;;;;4.55;1.77;;;21.50;49.20;;;;;;4990328;28;20079;-74
2022/07/10 08:57:02;;;;;;;5.47;1.70;;;21.60;50.20;;;;;;5008302;28;20125;-75
2022/07/10 08:59:29;;;;;;;6.05;2.17;;;21.60;48.50;;;;;;5008336;28;20378;-75
2022/07/10 09:02:03;;;;;;;4.13;1.80;;;21.50;48.90;;;;;;5008462;28;20022;-75
2022/07/10 09:04:32;;;;;;;6.07;1.73;;;21.00;49.40;;;;;;4992031;28;20535;-74
2022/07/10 09:06:57;;;;;;;1.65;1.20;;;20.90;51.30;;;;;;4993093;28;20030;-74
2022/07/10 09:09:26;;;;;;;4.28;1.52;;;21.20;50.50;;;;;;5008331;28;20045;-76
2022/07/10 09:11:57;;;;;;;5.20;1.27;;;21.60;48.60;;;;;;5008114;28;20025;-74
2022/07/10 09:14:25;;;;;;;3.88;1.50;;;22.00;46.90;;;;;;5008559;28;20030;-73
2022/07/10 09:16:51;;;;;;;5.38;1.50;;;22.30;46.00;;;;;;5008949;28;20048;-74
2022/07/10 09:19:28;;;;;;;4.78;1.98;;;22.50;45.70;;;;;;5008694;28;20025;-74
2022/07/10 09:22:01;;;;;;;5.85;2.10;;;22.20;45.60;;;;;;5008718;28;20207;-74
2022/07/10 09:24:34;;;;;;;7.57;1.92;;;21.70;48.60;;;;;;5008762;28;20470;-74
2022/07/10 09:27:03;;;;;;;4.97;1.95;;;21.80;48.10;;;;;;5009837;28;20038;-75
2022/07/10 09:29:29;;;;;;;3.38;1.63;;;21.70;46.70;;;;;;5009231;28;20026;-75
2022/07/10 09:32:00;;;;;;;5.38;1.45;;;21.70;47.10;;;;;;4992449;28;20387;-74
2022/07/10 09:34:45;;;;;;;5.82;1.80;;;21.80;47.30;;;;;;5008634;28;20026;-75
2022/07/10 09:37:41;;;;;;;7.07;1.67;;;21.90;45.90;;;;;;5008543;28;20038;-74
2022/07/10 09:40:08;;;;;;;5.40;1.83;;;21.90;46.40;;;;;;5017253;28;20115;-74
2022/07/10 09:42:38;;;;;;;5.07;1.73;;;21.80;46.50;;;;;;5008726;28;20493;-75
2022/07/10 09:45:12;;;;;;;3.70;1.55;;;21.60;47.20;;;;;;5008696;28;20050;-74
2022/07/10 09:47:54;;;;;;;3.92;1.30;;;22.00;46.50;;;;;;5008309;28;20030;-74
2022/07/10 09:50:24;;;;;;;3.58;1.95;;;22.30;45.40;;;;;;5008853;28;20117;-74
2022/07/10 09:53:00;;;;;;;4.78;1.42;;;22.30;44.50;;;;;;5008715;28;20091;-75
2022/07/10 09:55:31;;;;;;;7.55;1.70;;;22.40;45.30;;;;;;5008620;28;20178;-74
2022/07/10 09:58:09;;;;;;;3.45;1.63;;;22.40;44.60;;;;;;5015111;28;20105;-74
2022/07/10 10:00:39;;;;;;;3.35;1.73;;;22.30;44.90;;;;;;5012360;28;20037;-75
2022/07/10 10:03:07;;;;;;;4.40;1.73;;;22.40;44.40;;;;;;5012087;28;20025;-74
2022/07/10 10:06:14;;;;;;;5.10;1.63;;;21.70;46.30;;;;;;5012401;28;20022;-74
2022/07/10 10:09:07;;;;;;;3.42;1.52;;;21.30;48.80;;;;;;5030972;28;20030;-75
2022/07/10 10:11:36;;;;;;;3.88;1.40;;;21.40;48.30;;;;;;5010162;28;20492;-75
2022/07/10 10:14:03;;;;;;;2.97;1.75;;;21.60;47.90;;;;;;5008650;28;20018;-74
2022/07/10 10:16:29;;;;;;;3.47;1.52;;;21.70;46.40;;;;;;5010597;28;20038;-74
2022/07/10 10:21:41;;;;;;;2.90;1.65;;;22.50;45.20;;;;;;4993642;28;20060;-76
2022/07/10 10:24:08;;;;;;;2.88;1.60;;;22.50;43.70;;;;;;5008275;28;20099;-76
2022/07/10 10:26:34;;;;;;;6.78;1.58;;;22.40;44.50;;;;;;5008503;28;20064;-76
2022/07/10 10:29:03;;;;;;;3.38;1.50;;;22.60;44.10;;;;;;5009899;28;20031;-76
2022/07/10 10:31:30;;;;;;;3.63;1.60;;;23.00;43.40;;;;;;5008305;28;20379;-75
2022/07/10 10:33:56;;;;;;;6.15;1.77;;;23.20;42.00;;;;;;5010169;28;20029;-75
2022/07/10 10:36:46;;;;;;;7.63;1.83;;;22.90;41.80;;;;;;5009125;28;20035;-75
2022/07/10 10:39:19;;;;;;;4.55;1.40;;;22.40;43.40;;;;;;4991875;28;20026;-76
2022/07/10 10:41:52;;;;;;;2.88;1.35;;;22.30;43.90;;;;;;5012224;28;20039;-75
2022/07/10 10:44:22;;;;;;;4.10;1.30;;;22.20;44.20;;;;;;5008579;28;20110;-74
2022/07/10 10:47:00;;;;;;;5.93;2.25;;;22.00;44.20;;;;;;5008294;28;20026;-77
2022/07/10 10:49:46;;;;;;;5.18;1.85;;;22.00;45.00;;;;;;5008282;28;20183;-75
2022/07/10 10:52:16;;;;;;;;;;;21.70;45.80;;;;;;5008554;28;20030;-78
2022/07/10 10:54:57;;;;;;;2.50;1.23;;;21.70;45.20;;;;;;5007850;28;19905;-77
2022/07/10 10:57:44;;;;;;;3.22;1.30;;;22.30;45.40;;;;;;4991751;28;20038;-78
2022/07/10 11:00:37;;;;;;;4.72;1.52;;;22.50;43.40;;;;;;4994217;28;20102;-78
2022/07/10 11:03:19;;;;;;;4.25;1.83;;;23.00;42.70;;;;;;5008130;28;20029;-78
2022/07/10 11:05:47;;;;;;;4.25;1.73;;;22.40;44.00;;;;;;5009229;28;20045;-81
2022/07/10 11:08:14;;;;;;;5.72;1.75;;;22.80;42.60;;;;;;5007788;28;20027;-78
2022/07/10 11:10:44;;;;;;;3.45;1.40;;;23.10;41.60;;;;;;5008651;28;20482;-75
2022/07/10 11:13:12;;;;;;;14.73;2.47;;;23.40;41.50;;;;;;5007429;28;20045;-82
2022/07/10 11:15:52;;;;;;;35.88;4.57;;;23.70;41.50;;;;;;4992642;28;20023;-78
2022/07/10 11:18:30;;;;;;;9.27;1.77;;;24.10;39.90;;;;;;5010447;28;20394;-77
2022/07/10 11:20:56;;;;;;;9.45;1.88;;;24.50;39.70;;;;;;5011187;28;20029;-77
2022/07/10 11:23:48;;;;;;;8.75;1.88;;;24.10;38.20;;;;;;4994869;28;20451;-78
2022/07/10 11:26:29;;;;;;;5.80;1.73;;;24.30;38.40;;;;;;5011055;28;20038;-78
2022/07/10 11:29:05;;;;;;;2.92;1.40;;;24.20;38.90;;;;;;5012287;28;20026;-78
2022/07/10 11:31:34;;;;;;;5.32;1.25;;;24.60;38.20;;;;;;4993910;28;20107;-77
2022/07/10 11:34:14;;;;;;;2.08;1.13;;;24.90;38.10;;;;;;5012240;28;20082;-78
2022/07/10 11:36:41;;;;;;;4.60;1.70;;;25.30;37.00;;;;;;5010653;28;20440;-77
2022/07/10 11:39:08;;;;;;;3.88;1.50;;;25.10;36.90;;;;;;5010259;28;20041;-77
2022/07/10 11:41:42;;;;;;;6.82;2.10;;;24.40;36.90;;;;;;5010680;28;20035;-77
2022/07/10 11:44:14;;;;;;;3.47;1.50;;;24.30;37.70;;;;;;5010423;28;20026;-77
2022/07/10 11:46:42;;;;;;;4.45;1.48;;;24.30;38.20;;;;;;5010318;28;20044;-78
2022/07/10 11:49:08;;;;;;;3.30;1.45;;;24.60;38.50;;;;;;5010474;28;20033;-77
2022/07/10 11:51:42;;;;;;;6.40;1.70;;;24.90;36.00;;;;;;5010620;28;20030;-77
2022/07/10 11:54:10;;;;;;;6.32;1.75;;;24.40;36.50;;;;;;5010489;28;20121;-77
2022/07/10 11:56:40;;;;;;;6.82;1.70;;;24.00;37.60;;;;;;5010277;28;20033;-76
2022/07/10 11:59:07;;;;;;;5.18;1.30;;;23.80;39.00;;;;;;5010076;28;20125;-77
2022/07/10 12:01:45;;;;;;;4.15;1.73;;;24.30;38.50;;;;;;5009844;28;20129;-75
2022/07/10 12:04:12;;;;;;;9.52;1.60;;;24.70;36.70;;;;;;5010522;28;20566;-76
2022/07/10 12:06:39;;;;;;;3.20;1.67;;;25.10;36.80;;;;;;5010677;28;20331;-76
2022/07/10 12:09:09;;;;;;;5.05;1.38;;;25.50;35.30;;;;;;5010308;28;20516;-75
2022/07/10 12:11:36;;;;;;;3.22;1.42;;;25.40;34.90;;;;;;5006694;28;20018;-75
2022/07/10 12:14:14;;;;;;;4.25;1.52;;;25.00;36.10;;;;;;5009336;28;20053;-75
2022/07/10 12:16:44;;;;;;;3.13;1.20;;;24.80;36.70;;;;;;5008616;28;20363;-75
2022/07/10 12:19:12;;;;;;;4.85;1.48;;;24.70;35.60;;;;;;5009989;28;20022;-75
2022/07/10 12:21:39;;;;;;;2.40;1.15;;;24.90;36.30;;;;;;4992502;28;20026;-75
2022/07/10 12:24:05;;;;;;;3.92;1.58;;;25.10;36.00;;;;;;5008169;28;20026;-76
2022/07/10 12:26:39;;;;;;;3.65;1.33;;;25.30;35.70;;;;;;5010145;28;20026;-75
2022/07/10 12:29:05;;;;;;;4.15;1.77;;;25.00;35.60;;;;;;5009937;28;20030;-74
2022/07/10 12:31:37;;;;;;;3.13;1.25;;;24.50;36.30;;;;;;4993133;28;20050;-74
2022/07/10 12:34:05;;;;;;;3.80;1.20;;;24.70;36.40;;;;;;5009838;28;20032;-75
2022/07/10 12:36:45;;;;;;;3.47;1.70;;;25.10;36.20;;;;;;5011014;28;20109;-73
2022/07/10 12:39:13;;;;;;;5.30;1.25;;;25.00;35.60;;;;;;5009716;28;20034;-71
2022/07/10 12:41:57;;;;;;;5.80;1.30;;;25.40;35.50;;;;;;5009549;28;20022;-72
2022/07/10 12:44:39;;;;;;;8.93;1.73;;;25.50;34.40;;;;;;5010085;28;20090;-72
2022/07/10 12:47:11;;;;;;;2.15;1.45;;;25.10;35.30;;;;;;5009693;28;20025;-72
2022/07/10 12:49:55;;;;;;;3.85;1.30;;;24.80;36.40;;;;;;5009347;28;20030;-74
2022/07/10 12:52:23;;;;;;;5.72;1.48;;;25.00;36.50;;;;;;5009815;28;20382;-74
2022/07/10 12:55:04;;;;;;;2.50;1.42;;;25.60;37.00;;;;;;5009295;28;20486;-74
2022/07/10 12:57:30;;;;;;;5.57;1.38;;;26.10;35.30;;;;;;5009492;28;20141;-75
2022/07/10 13:00:06;;;;;;;2.58;1.23;;;25.80;33.60;;;;;;5011069;28;20032;-74
2022/07/10 13:02:32;;;;;;;4.05;1.58;;;25.70;34.80;;;;;;5009552;28;20113;-75